createdAt,value
2018-05-24T00:01:06.123Z,87.10
2018-05-24T00:03:34.145Z,83.10
2018-05-24T00:06:02.348Z,90.80
2018-05-24T00:08:30.357Z,83.80
2018-05-24T00:10:57.980Z,91.10
2018-05-24T00:13:27.180Z,83.50
2018-05-24T00:15:54.800Z,91.20
2018-05-24T00:18:23.183Z,83.90
2018-05-24T00:20:52.004Z,85.30
2018-05-24T00:23:19.633Z,92.10
2018-05-24T00:25:47.653Z,88.00
2018-05-24T00:28:15.313Z,92.40
2018-05-24T00:30:42.945Z,92.30
2018-05-24T00:33:10.573Z,92.60
2018-05-24T00:35:38.941Z,85.80
2018-05-24T00:38:06.582Z,92.20
2018-05-24T00:40:34.607Z,88.70
2018-05-24T00:43:02.250Z,92.00
2018-05-24T00:45:30.420Z,87.80
2018-05-24T00:47:58.412Z,87.40
2018-05-24T00:50:26.424Z,85.20
2018-05-24T00:52:55.594Z,85.00
2018-05-24T00:55:34.962Z,92.00
2018-05-24T00:58:02.628Z,91.30
2018-05-24T01:00:31.042Z,85.60
2018-05-24T01:02:59.566Z,86.10
2018-05-24T01:05:27.204Z,91.60
2018-05-24T01:07:55.244Z,86.10
2018-05-24T01:10:23.670Z,86.70
2018-05-24T01:12:52.088Z,87.00
2018-05-24T01:15:19.755Z,93.00
2018-05-24T01:17:48.163Z,86.90
2018-05-24T01:20:16.579Z,87.90
2018-05-24T01:22:45.087Z,87.50
2018-05-24T01:25:13.081Z,87.70
2018-05-24T01:27:41.086Z,88.10
2018-05-24T01:30:09.138Z,88.50
2018-05-24T01:32:37.520Z,89.50
2018-05-24T01:35:05.224Z,93.60
2018-05-24T01:37:50.613Z,90.90
2018-05-24T01:40:18.263Z,94.00
2018-05-24T01:42:45.884Z,94.20
2018-05-24T01:45:13.509Z,94.20
2018-05-24T01:47:41.557Z,91.70
2018-05-24T01:50:09.260Z,94.40
2018-05-24T01:52:36.854Z,94.50
2018-05-24T01:55:05.240Z,90.30
2018-05-24T01:57:33.651Z,90.50
2018-05-24T02:00:01.690Z,91.10
2018-05-24T02:02:30.088Z,90.80
2018-05-24T02:07:27.883Z,90.90
2018-05-24T02:09:57.025Z,91.40
2018-05-24T02:12:25.439Z,91.50
2018-05-24T02:14:53.046Z,95.90
2018-05-24T02:17:21.091Z,91.80
2018-05-24T02:19:48.704Z,95.40
2018-05-24T02:22:16.356Z,95.40
2018-05-24T02:24:43.966Z,93.00
2018-05-24T02:27:11.711Z,95.40
2018-05-24T02:29:40.104Z,91.10
2018-05-24T02:32:07.714Z,96.10
2018-05-24T02:34:35.761Z,91.60
2018-05-24T02:37:03.403Z,96.40
2018-05-24T02:39:31.055Z,96.70
2018-05-24T02:41:58.656Z,96.70
2018-05-24T02:44:26.726Z,92.30
2018-05-24T02:46:55.114Z,92.40
2018-05-24T02:49:23.476Z,92.60
2018-05-24T02:51:51.502Z,92.90
2018-05-24T02:54:23.196Z,92.20
2018-05-24T02:56:51.239Z,92.90
2018-05-24T02:59:18.873Z,96.40
2018-05-24T03:01:46.565Z,96.60
2018-05-24T03:04:14.234Z,95.20
2018-05-24T03:06:42.649Z,91.90
2018-05-24T03:09:11.817Z,91.90
2018-05-24T03:11:39.816Z,91.90
2018-05-24T03:14:08.237Z,92.20
2018-05-24T03:16:35.848Z,96.30
2018-05-24T03:19:04.267Z,91.90
2018-05-24T03:21:32.306Z,91.90
2018-05-24T03:23:59.901Z,96.20
2018-05-24T03:26:27.632Z,96.10
2018-05-24T03:28:56.015Z,91.70
2018-05-24T03:31:24.389Z,92.20
2018-05-24T03:33:52.992Z,92.00
2018-05-24T03:36:21.310Z,91.90
2018-05-24T03:38:48.928Z,96.10
2018-05-24T03:41:18.092Z,91.80
2018-05-24T03:43:45.705Z,94.50
2018-05-24T03:46:13.432Z,96.10
2018-05-24T03:48:41.061Z,94.60
2018-05-24T03:51:09.075Z,91.90
2018-05-24T03:53:37.890Z,92.00
2018-05-24T03:56:05.536Z,94.00
2018-05-24T03:58:33.147Z,96.10
2018-05-24T04:01:12.542Z,96.10
2018-05-24T04:03:48.837Z,91.90
2018-05-24T04:06:17.292Z,96.20
2018-05-24T04:08:45.061Z,96.20
2018-05-24T04:11:13.860Z,91.80
2018-05-24T04:13:41.504Z,95.70
2018-05-24T04:16:09.144Z,95.70
2018-05-24T04:18:37.526Z,91.60
2018-05-24T04:21:05.549Z,91.70
2018-05-24T04:23:33.567Z,91.70
2018-05-24T04:26:01.236Z,95.70
2018-05-24T04:28:29.265Z,91.70
2018-05-24T04:30:56.906Z,96.00
2018-05-24T04:33:24.629Z,95.90
2018-05-24T04:35:52.229Z,96.00
2018-05-24T04:38:19.834Z,96.10
2018-05-24T04:40:48.234Z,91.90
2018-05-24T04:43:16.224Z,91.80
2018-05-24T04:48:13.523Z,92.00
2018-05-24T04:50:41.131Z,94.00
2018-05-24T04:53:08.777Z,96.30
2018-05-24T04:55:37.161Z,92.40
2018-05-24T04:58:05.540Z,92.20
2018-05-24T05:00:33.927Z,92.20
2018-05-24T05:03:01.564Z,96.30
2018-05-24T05:05:29.970Z,92.30
2018-05-24T05:07:57.603Z,96.40
2018-05-24T05:10:25.236Z,96.30
2018-05-24T05:12:54.090Z,92.10
2018-05-24T05:15:21.699Z,96.30
2018-05-24T05:17:50.090Z,92.10
2018-05-24T05:20:18.127Z,92.20
2018-05-24T05:25:15.591Z,91.90
2018-05-24T05:27:43.124Z,95.70
2018-05-24T05:30:11.196Z,91.50
2018-05-24T05:32:39.199Z,92.80
2018-05-24T05:35:07.254Z,92.10
2018-05-24T05:37:34.930Z,95.40
2018-05-24T05:40:02.474Z,95.80
2018-05-24T05:44:59.126Z,95.50
2018-05-24T05:47:28.268Z,91.50
2018-05-24T05:49:57.216Z,91.10
2018-05-24T05:54:54.201Z,91.50
2018-05-24T05:57:21.848Z,95.30
2018-05-24T05:59:49.887Z,91.20
2018-05-24T06:02:18.295Z,91.70
2018-05-24T06:04:45.906Z,94.60
2018-05-24T06:07:13.528Z,95.20
2018-05-24T06:09:41.226Z,94.00
2018-05-24T06:12:09.901Z,95.50
2018-05-24T06:14:37.529Z,95.10
2018-05-24T06:17:06.306Z,92.40
2018-05-24T06:19:33.922Z,95.90
2018-05-24T06:22:01.957Z,91.80
2018-05-24T06:24:29.576Z,95.60
2018-05-24T06:26:57.972Z,92.20
2018-05-24T06:29:27.139Z,91.90
2018-05-24T06:31:55.543Z,92.00
2018-05-24T06:34:23.555Z,91.90
2018-05-24T06:36:52.062Z,92.00
2018-05-24T06:39:21.176Z,92.10
2018-05-24T06:41:49.542Z,92.30
2018-05-24T06:44:32.227Z,96.00
2018-05-24T06:46:59.836Z,95.20
2018-05-24T06:49:28.270Z,91.70
2018-05-24T06:51:56.405Z,91.90
2018-05-24T06:54:24.084Z,94.90
2018-05-24T06:56:51.718Z,94.60
2018-05-24T06:59:20.120Z,91.00
2018-05-24T07:01:47.768Z,94.60
2018-05-24T07:04:15.780Z,91.80
2018-05-24T07:06:43.396Z,94.30
2018-05-24T07:09:11.078Z,94.00
2018-05-24T07:11:39.459Z,90.40
2018-05-24T07:14:07.200Z,93.90
2018-05-24T07:16:35.099Z,93.60
2018-05-24T07:19:03.143Z,90.30
2018-05-24T07:21:30.795Z,93.20
2018-05-24T07:23:59.172Z,89.10
2018-05-24T07:26:27.196Z,88.60
2018-05-24T07:28:54.786Z,90.60
2018-05-24T07:31:22.442Z,92.00
2018-05-24T07:33:50.065Z,92.10
2018-05-24T07:36:18.077Z,90.30
2018-05-24T07:38:46.116Z,86.20
2018-05-24T07:41:14.523Z,86.80
2018-05-24T07:43:42.135Z,91.20
2018-05-24T07:46:10.209Z,84.00
2018-05-24T07:48:37.819Z,89.30
2018-05-24T07:51:05.436Z,88.10
2018-05-24T07:53:34.215Z,81.20
2018-05-24T07:56:01.804Z,88.20
2018-05-24T07:58:29.415Z,88.70
2018-05-24T08:00:57.084Z,89.40
2018-05-24T08:03:25.816Z,84.00
2018-05-24T08:05:53.583Z,90.10
2018-05-24T08:08:21.949Z,83.50
2018-05-24T08:13:18.568Z,90.60
2018-05-24T08:15:46.192Z,90.40
2018-05-24T08:18:14.231Z,84.50
2018-05-24T08:20:41.842Z,90.60
2018-05-24T08:23:10.229Z,84.80
2018-05-24T08:25:38.221Z,86.00
2018-05-24T08:28:05.871Z,89.80
2018-05-24T08:30:33.892Z,83.50
2018-05-24T08:33:02.274Z,83.40
2018-05-24T08:35:29.942Z,89.10
2018-05-24T08:37:57.939Z,83.60
2018-05-24T08:40:26.312Z,83.20
2018-05-24T08:42:55.108Z,83.10
2018-05-24T08:45:23.132Z,85.00
2018-05-24T08:47:50.750Z,88.80
2018-05-24T08:50:18.796Z,82.20
2018-05-24T08:52:47.254Z,82.00
2018-05-24T08:55:14.875Z,88.40
2018-05-24T08:57:42.927Z,82.80
2018-05-24T09:00:12.081Z,83.10
2018-05-24T09:02:39.679Z,89.80
2018-05-24T09:05:08.119Z,82.60
2018-05-24T09:07:35.726Z,88.70
2018-05-24T09:10:03.366Z,86.10
2018-05-24T09:12:31.888Z,81.20
2018-05-24T09:14:59.515Z,86.00
2018-05-24T09:17:27.912Z,81.10
2018-05-24T09:19:55.559Z,87.10
2018-05-24T09:22:23.920Z,81.10
2018-05-24T09:24:51.560Z,86.10
2018-05-24T09:27:19.174Z,85.90
2018-05-24T09:29:47.188Z,80.10
2018-05-24T09:32:15.621Z,78.50
2018-05-24T09:34:43.241Z,85.10
2018-05-24T09:37:10.905Z,85.10
2018-05-24T09:39:38.519Z,83.80
2018-05-24T09:42:06.137Z,84.50
2018-05-24T09:44:34.161Z,78.70
2018-05-24T09:47:01.770Z,83.20
2018-05-24T09:49:29.927Z,76.50
2018-05-24T09:51:57.539Z,81.70
2018-05-24T09:54:36.947Z,78.80
2018-05-24T09:57:04.607Z,80.90
2018-05-24T09:59:33.017Z,75.60
2018-05-24T10:02:00.748Z,78.80
2018-05-24T10:04:28.772Z,73.80
2018-05-24T10:06:56.381Z,78.40
2018-05-24T10:09:24.059Z,78.00
2018-05-24T10:11:52.817Z,70.90
2018-05-24T10:14:20.418Z,70.30
2018-05-24T10:16:48.453Z,67.60
2018-05-24T10:19:17.616Z,66.40
2018-05-24T10:21:45.629Z,66.70
2018-05-24T10:24:13.289Z,69.10
2018-05-24T10:26:41.661Z,65.00
2018-05-24T10:29:09.293Z,71.90
2018-05-24T10:31:36.948Z,72.60
2018-05-24T10:34:04.560Z,72.80
2018-05-24T10:36:33.790Z,69.70
2018-05-24T10:39:02.168Z,68.10
2018-05-24T10:41:29.795Z,72.30
2018-05-24T10:43:57.420Z,69.90
2018-05-24T10:46:25.029Z,70.40
2018-05-24T10:48:53.412Z,66.40
2018-05-24T10:51:21.833Z,67.40
2018-05-24T10:53:49.884Z,66.40
2018-05-24T10:56:17.554Z,70.50
2018-05-24T10:58:45.253Z,68.80
2018-05-24T11:01:13.549Z,71.20
2018-05-24T11:03:41.986Z,68.50
2018-05-24T11:08:36.426Z,75.00
2018-05-24T11:11:04.539Z,72.00
2018-05-24T11:13:32.639Z,72.90
2018-05-24T11:16:00.406Z,77.00
2018-05-24T11:18:28.349Z,77.10
2018-05-24T11:23:25.072Z,76.00
2018-05-24T11:25:53.494Z,73.20
2018-05-24T11:28:22.273Z,75.70
2018-05-24T11:30:50.990Z,70.50
2018-05-24T11:33:19.195Z,71.80
2018-05-24T11:35:47.790Z,71.60
2018-05-24T11:38:16.268Z,70.50
2018-05-24T11:40:45.150Z,69.80
2018-05-24T11:43:13.669Z,69.70
2018-05-24T11:48:10.716Z,75.10
2018-05-24T11:50:39.183Z,69.30
2018-05-24T11:53:07.303Z,70.50
2018-05-24T11:55:35.314Z,70.60
2018-05-24T11:58:02.955Z,74.70
2018-05-24T12:00:30.603Z,74.20
2018-05-24T12:02:58.204Z,74.90
2018-05-24T12:05:26.621Z,70.40
2018-05-24T12:07:54.627Z,70.80
2018-05-24T12:10:22.239Z,77.20
2018-05-24T12:12:49.877Z,76.30
2018-05-24T12:15:18.305Z,72.00
2018-05-24T12:17:45.915Z,78.30
2018-05-24T12:22:43.290Z,77.70
2018-05-24T12:25:11.672Z,77.20
2018-05-24T12:27:40.024Z,76.80
2018-05-24T12:30:07.664Z,81.50
2018-05-24T12:32:35.282Z,82.40
2018-05-24T12:35:03.728Z,79.20
2018-05-24T12:37:31.357Z,84.80
2018-05-24T12:39:58.948Z,84.00
2018-05-24T12:42:27.026Z,78.30
2018-05-24T12:47:23.606Z,82.60
2018-05-24T12:49:52.008Z,76.80
2018-05-24T12:52:20.029Z,75.40
2018-05-24T12:54:47.671Z,79.70
2018-05-24T12:57:15.282Z,81.30
2018-05-24T12:59:44.062Z,75.80
2018-05-24T13:07:10.072Z,84.90
2018-05-24T13:09:37.692Z,85.90
2018-05-24T13:12:05.422Z,87.40
2018-05-24T13:14:33.035Z,87.90
2018-05-24T13:17:01.057Z,86.10
2018-05-24T13:19:29.880Z,86.00
2018-05-24T13:21:57.918Z,87.60
2018-05-24T13:24:26.316Z,88.60
2018-05-24T13:26:54.727Z,90.20
2018-05-24T13:29:22.371Z,93.40
2018-05-24T13:31:50.111Z,92.60
2018-05-24T13:34:18.871Z,90.90
2018-05-24T13:36:46.491Z,93.10
2018-05-24T13:39:14.193Z,92.70
2018-05-24T13:41:41.799Z,92.90
2018-05-24T13:44:09.423Z,92.80
2018-05-24T13:46:37.840Z,90.80
2018-05-24T13:49:05.857Z,90.00
2018-05-24T13:51:34.614Z,90.30
2018-05-24T13:54:02.210Z,92.50
2018-05-24T13:56:29.835Z,91.50
2018-05-24T13:58:57.489Z,92.30
2018-05-24T14:01:25.545Z,90.00
2018-05-24T14:03:54.338Z,88.80
2018-05-24T14:06:21.950Z,90.80
2018-05-24T14:08:49.967Z,86.70
2018-05-24T14:11:17.590Z,90.90
2018-05-24T14:13:45.232Z,90.20
2018-05-24T14:16:12.852Z,91.10
2018-05-24T14:18:41.234Z,86.80
2018-05-24T14:21:08.887Z,91.30
2018-05-24T14:23:37.608Z,90.00
2018-05-24T14:26:06.423Z,90.60
2018-05-24T14:28:35.136Z,89.20
2018-05-24T14:31:03.914Z,90.30
2018-05-24T14:33:31.548Z,92.00
2018-05-24T14:36:00.661Z,90.50
2018-05-24T14:38:28.679Z,90.60
2018-05-24T14:40:57.814Z,90.80
2018-05-24T14:43:25.831Z,90.30
2018-05-24T14:45:53.838Z,88.40
2018-05-24T14:48:22.986Z,82.80
2018-05-24T14:50:50.652Z,82.40
2018-05-24T14:53:19.441Z,78.60
2018-05-24T14:55:47.910Z,76.40
2018-05-24T14:58:15.511Z,76.90
2018-05-24T15:00:43.268Z,80.80
2018-05-24T15:03:10.868Z,82.40
2018-05-24T15:05:38.486Z,82.80
2018-05-24T15:08:06.641Z,80.60
2018-05-24T15:10:34.636Z,80.80
2018-05-24T15:13:02.232Z,84.50
2018-05-24T15:15:30.278Z,80.50
2018-05-24T15:17:58.268Z,80.30
2018-05-24T15:20:26.020Z,85.40
2018-05-24T15:22:53.644Z,84.10
2018-05-24T15:25:21.717Z,81.20
2018-05-24T15:27:50.373Z,82.50
2018-05-24T15:30:18.406Z,82.60
2018-05-24T15:32:46.162Z,85.20
2018-05-24T15:35:13.805Z,85.60
2018-05-24T15:37:41.431Z,88.00
2018-05-24T15:40:09.615Z,84.40
2018-05-24T15:42:37.200Z,86.10
2018-05-24T15:45:05.222Z,86.60
2018-05-24T15:47:32.874Z,88.20
2018-05-24T15:50:00.936Z,85.90
2018-05-24T15:52:29.320Z,83.50
2018-05-24T15:54:58.072Z,83.60
2018-05-24T15:57:26.101Z,84.60
2018-05-24T15:59:53.718Z,89.30
2018-05-24T16:02:21.784Z,86.70
2018-05-24T16:04:49.407Z,90.20
2018-05-24T16:07:17.869Z,84.10
2018-05-24T16:09:46.499Z,84.60
2018-05-24T16:12:14.875Z,84.60
2018-05-24T16:14:42.882Z,84.80
2018-05-24T16:24:37.511Z,91.80
2018-05-24T16:27:05.133Z,92.20
2018-05-24T16:32:02.617Z,90.90
2018-05-24T16:34:31.006Z,91.70
2018-05-24T16:36:59.615Z,92.80
2018-05-24T16:41:56.979Z,91.90
2018-05-24T16:44:25.026Z,94.80
2018-05-24T16:46:53.392Z,92.40
2018-05-24T16:51:50.390Z,92.20
2018-05-24T16:54:18.040Z,93.40
2018-05-24T16:56:45.707Z,94.60
2018-05-24T17:04:13.002Z,92.20
2018-05-24T17:06:41.412Z,91.90
2018-05-24T17:11:39.587Z,92.50
2018-05-24T17:14:07.198Z,93.90
2018-05-24T17:21:33.592Z,90.20
2018-05-24T17:24:01.464Z,92.10
2018-05-24T17:26:30.279Z,89.40
2018-05-24T17:31:26.887Z,92.50
2018-05-24T17:33:55.303Z,90.20
2018-05-24T17:36:22.916Z,92.50
2018-05-24T17:41:19.560Z,92.30
2018-05-24T17:43:47.197Z,92.40
2018-05-24T17:48:44.183Z,90.30
2018-05-24T17:51:12.202Z,90.40
2018-05-24T17:53:40.358Z,90.60
2018-05-24T17:58:36.971Z,93.20
2018-05-24T18:01:04.622Z,93.50
2018-05-24T18:03:32.221Z,93.30
2018-05-24T18:08:28.885Z,93.50
2018-05-24T18:10:56.671Z,93.70
2018-05-24T18:13:24.442Z,92.20
2018-05-24T18:18:21.468Z,92.30
2018-05-24T18:20:49.521Z,91.40
2018-05-24T18:25:46.352Z,95.10
2018-05-24T18:28:14.730Z,92.70
2018-05-24T18:30:42.362Z,94.10
2018-05-24T18:35:39.770Z,93.40
2018-05-24T18:38:07.378Z,96.00
2018-05-24T18:40:35.855Z,93.50
2018-05-24T18:45:32.576Z,96.20
2018-05-24T18:48:00.611Z,94.00
2018-05-24T18:50:28.638Z,94.20
2018-05-24T18:52:57.808Z,94.00
2018-05-24T18:55:25.419Z,96.10
2018-05-24T18:57:53.052Z,94.50
2018-05-24T19:00:21.465Z,93.30
2018-05-24T19:02:49.642Z,93.10
2018-05-24T19:05:18.054Z,93.40
2018-05-24T19:07:46.522Z,93.30
2018-05-24T19:10:14.366Z,96.10
2018-05-24T19:12:42.043Z,96.10
2018-05-24T19:15:10.447Z,93.40
2018-05-24T19:17:38.606Z,93.50
2018-05-24T19:20:06.196Z,96.50
2018-05-24T19:22:33.814Z,96.00
2018-05-24T19:25:02.995Z,93.70
2018-05-24T19:27:30.767Z,96.10
2018-05-24T19:29:58.405Z,95.40
2018-05-24T19:32:26.792Z,93.90
2018-05-24T19:37:23.806Z,93.90
2018-05-24T19:39:52.954Z,93.90
2018-05-24T19:42:21.374Z,93.90
2018-05-24T19:44:49.404Z,95.00
2018-05-24T19:47:17.820Z,93.90
2018-05-24T19:49:46.206Z,94.00
2018-05-24T19:52:13.863Z,96.30
2018-05-24T19:54:42.822Z,94.00
2018-05-24T19:57:10.619Z,97.10
2018-05-24T19:59:39.345Z,94.10
2018-05-24T20:04:37.937Z,94.30
2018-05-24T20:07:06.745Z,94.40
2018-05-24T20:09:35.116Z,94.80
2018-05-24T20:12:02.749Z,97.40
2018-05-24T20:14:30.379Z,98.10
2018-05-24T20:21:57.818Z,96.90
2018-05-24T20:24:27.024Z,97.20
2018-05-24T20:29:24.883Z,96.90
2018-05-24T20:31:53.396Z,98.60
2018-05-24T20:34:22.159Z,98.00
2018-05-24T20:36:51.225Z,97.40
2018-05-24T20:39:20.642Z,97.90
2018-05-24T20:41:48.278Z,99.70
2018-05-24T20:44:15.956Z,99.90
2018-05-24T20:46:44.019Z,98.80
2018-05-24T20:49:12.135Z,97.90
2018-05-24T20:51:39.930Z,99.90
2018-05-24T20:54:07.558Z,99.80
2018-05-24T20:56:35.174Z,99.90
2018-05-24T20:59:03.962Z,98.10
2018-05-24T21:01:32.724Z,98.00
2018-05-24T21:04:01.285Z,98.10
2018-05-24T21:06:28.914Z,99.90
2018-05-24T21:08:57.040Z,97.70
2018-05-24T21:11:25.433Z,98.40
2018-05-24T21:13:54.261Z,98.10
2018-05-24T21:16:21.860Z,99.90
2018-05-24T21:18:50.284Z,98.40
2018-05-24T21:21:17.988Z,99.90
2018-05-24T21:23:45.605Z,99.90
2018-05-24T21:26:14.360Z,98.50
2018-05-24T21:28:42.766Z,98.70
2018-05-24T21:31:11.900Z,98.80
2018-05-24T21:33:39.563Z,99.90
2018-05-24T21:36:07.168Z,99.90
2018-05-24T21:38:35.238Z,98.90
2018-05-24T21:43:32.612Z,99.40
2018-05-24T21:46:01.029Z,98.80
2018-05-24T21:48:28.669Z,99.90
2018-05-24T21:50:56.297Z,99.90
2018-05-24T21:53:24.379Z,98.80
2018-05-24T21:55:51.985Z,99.90
2018-05-24T21:58:20.042Z,99.90
2018-05-24T22:00:51.618Z,99.90
2018-05-24T22:03:19.262Z,99.90
2018-05-24T22:05:46.916Z,99.90
2018-05-24T22:08:15.289Z,98.50
2018-05-24T22:10:43.005Z,99.90
2018-05-24T22:13:12.188Z,98.80
2018-05-24T22:15:39.890Z,99.90
2018-05-24T22:18:07.518Z,99.90
2018-05-24T22:20:35.120Z,99.90
2018-05-24T22:23:02.776Z,99.90
2018-05-24T22:25:30.782Z,98.70
2018-05-24T22:27:59.551Z,98.80
2018-05-24T22:30:27.161Z,99.90
2018-05-24T22:32:54.825Z,99.90
2018-05-24T22:35:22.838Z,99.10
2018-05-24T22:37:51.236Z,99.20
2018-05-24T22:40:19.050Z,99.90
2018-05-24T22:42:47.024Z,99.60
2018-05-24T22:45:15.781Z,98.70
2018-05-24T22:47:43.827Z,99.00
2018-05-24T22:50:11.453Z,99.90
2018-05-24T22:52:39.881Z,98.60
2018-05-24T22:55:07.496Z,99.90
2018-05-24T22:57:36.308Z,98.30
2018-05-24T23:00:05.434Z,98.30
2018-05-24T23:02:33.060Z,99.90
2018-05-24T23:05:01.489Z,98.00
2018-05-24T23:07:29.106Z,99.90
2018-05-24T23:09:57.528Z,97.30
2018-05-24T23:12:25.907Z,97.30
2018-05-24T23:14:53.929Z,98.10
2018-05-24T23:17:21.613Z,99.70
2018-05-24T23:19:49.383Z,99.70
2018-05-24T23:22:28.745Z,98.10
2018-05-24T23:24:56.425Z,99.20
2018-05-24T23:27:25.169Z,96.00
2018-05-24T23:29:52.790Z,99.30
2018-05-24T23:32:20.450Z,97.40
2018-05-24T23:34:48.826Z,95.90
2018-05-24T23:37:17.250Z,95.90
2018-05-24T23:39:45.634Z,96.00
2018-05-24T23:42:13.674Z,96.10
2018-05-24T23:44:41.342Z,99.10
2018-05-24T23:47:10.085Z,96.20
2018-05-24T23:49:39.208Z,96.70
2018-05-24T23:52:07.624Z,96.30
2018-05-24T23:54:36.352Z,96.70
2018-05-24T23:57:04.532Z,97.40
2018-05-24T23:59:32.921Z,97.30
